Maria Stein, Ohio
Current Conditions -  °F | °C
As of 2:53 PM on Sunday 23 Nov 2014 (Local Time) from KAXV Reporting Station
Overcast Overcast  
Wind Chill: 59°   Ceiling: 5500
Heat Index: 59°   Visibility: 10mi
Dew Point: 46°   Wind: 9mph
Humidity: 63%   Direction: 130°SE
Pressure: 29.68"   Gusts: NA
Location:  40.41°N, 84.49°W
Report Text: KAXV 231953Z AUTO 13008KT 10SM SCT046 OVC055 15/08 A2968 RMK AO2
Loading
Personal Weather Stations






























Interactive Weather Map New forecast layout! Learn more

10-Day Weather Forecast

Advertisements
Track Severe Weather on mobile